createdAt,value
2018-05-11T00:00:06.032Z,0.00
2018-05-11T00:01:05.937Z,0.00
2018-05-11T00:02:05.951Z,0.00
2018-05-11T00:03:06.069Z,0.00
2018-05-11T00:04:05.990Z,0.00
2018-05-11T00:05:06.012Z,0.00
2018-05-11T00:06:06.011Z,0.00
2018-05-11T00:07:06.042Z,0.00
2018-05-11T00:08:06.175Z,0.00
2018-05-11T00:09:06.077Z,0.00
2018-05-11T00:10:06.080Z,0.00
2018-05-11T00:11:06.117Z,0.00
2018-05-11T00:12:06.100Z,0.00
2018-05-11T00:13:06.264Z,0.00
2018-05-11T00:14:06.137Z,0.00
2018-05-11T00:15:06.154Z,0.00
2018-05-11T00:16:06.189Z,0.00
2018-05-11T00:17:06.199Z,0.00
2018-05-11T00:18:06.292Z,0.00
2018-05-11T00:19:06.200Z,0.00
2018-05-11T00:20:06.224Z,0.00
2018-05-11T00:21:06.265Z,0.00
2018-05-11T00:22:06.282Z,0.00
2018-05-11T00:23:06.388Z,0.00
2018-05-11T00:24:06.276Z,0.00
2018-05-11T00:25:07.835Z,0.00
2018-05-11T00:26:06.868Z,0.00
2018-05-11T00:27:06.338Z,0.00
2018-05-11T00:28:06.511Z,0.00
2018-05-11T00:29:06.378Z,0.00
2018-05-11T00:30:06.390Z,0.00
2018-05-11T00:31:06.381Z,0.00
2018-05-11T00:32:06.410Z,0.00
2018-05-11T00:33:06.422Z,0.00
2018-05-11T00:34:06.527Z,0.00
2018-05-11T00:35:06.441Z,0.00
2018-05-11T00:36:06.453Z,0.00
2018-05-11T00:37:06.468Z,0.00
2018-05-11T00:38:06.485Z,0.00
2018-05-11T00:39:06.626Z,0.00
2018-05-11T00:40:06.529Z,0.00
2018-05-11T00:41:06.558Z,0.00
2018-05-11T00:42:06.549Z,0.00
2018-05-11T00:43:06.581Z,0.00
2018-05-11T00:44:06.721Z,0.00
2018-05-11T00:45:06.597Z,0.00
2018-05-11T00:46:06.606Z,0.00
2018-05-11T00:47:06.615Z,0.00
2018-05-11T00:48:06.645Z,0.00
2018-05-11T00:49:06.770Z,0.00
2018-05-11T00:50:06.659Z,0.00
2018-05-11T00:51:06.728Z,0.00
2018-05-11T00:52:06.716Z,0.00
2018-05-11T00:53:06.701Z,0.00
2018-05-11T00:54:06.846Z,0.00
2018-05-11T00:55:06.763Z,0.00
2018-05-11T00:56:06.778Z,0.00
2018-05-11T00:57:06.771Z,0.00
2018-05-11T00:58:06.785Z,0.00
2018-05-11T00:59:06.956Z,0.00
2018-05-11T01:00:06.833Z,0.00
2018-05-11T01:01:06.824Z,0.00
2018-05-11T01:02:06.864Z,0.00
2018-05-11T01:03:06.860Z,0.00
2018-05-11T01:04:06.975Z,0.00
2018-05-11T01:05:06.908Z,0.00
2018-05-11T01:06:06.906Z,0.00
2018-05-11T01:07:06.918Z,0.00
2018-05-11T01:08:06.931Z,0.00
2018-05-11T01:09:07.048Z,0.00
2018-05-11T01:10:06.985Z,0.00
2018-05-11T01:11:06.970Z,0.00
2018-05-11T01:12:07.011Z,0.00
2018-05-11T01:13:07.000Z,0.00
2018-05-11T01:14:07.125Z,0.00
2018-05-11T01:15:07.065Z,0.00
2018-05-11T01:16:07.082Z,0.00
2018-05-11T01:17:07.091Z,0.00
2018-05-11T01:18:07.074Z,0.00
2018-05-11T01:19:07.220Z,0.00
2018-05-11T01:20:07.130Z,0.00
2018-05-11T01:21:07.124Z,0.00
2018-05-11T01:22:07.163Z,0.00
2018-05-11T01:23:07.148Z,0.00
2018-05-11T01:24:07.313Z,0.00
2018-05-11T01:25:07.206Z,0.00
2018-05-11T01:26:07.193Z,0.00
2018-05-11T01:27:07.212Z,0.00
2018-05-11T01:28:07.222Z,0.00
2018-05-11T01:29:07.345Z,0.00
2018-05-11T01:30:07.252Z,0.00
2018-05-11T01:31:07.268Z,0.00
2018-05-11T01:32:07.283Z,0.00
2018-05-11T01:33:07.296Z,0.00
2018-05-11T01:34:07.442Z,0.00
2018-05-11T01:35:07.334Z,0.00
2018-05-11T01:36:07.343Z,0.00
2018-05-11T01:37:07.375Z,0.00
2018-05-11T01:38:07.373Z,0.00
2018-05-11T01:39:07.398Z,0.00
2018-05-11T01:40:07.527Z,0.00
2018-05-11T01:41:07.434Z,0.00
2018-05-11T01:42:07.433Z,0.00
2018-05-11T01:43:07.472Z,0.00
2018-05-11T01:44:07.460Z,0.00
2018-05-11T01:45:07.599Z,0.00
2018-05-11T01:46:07.490Z,0.00
2018-05-11T01:47:07.536Z,0.00
2018-05-11T01:48:07.547Z,0.00
2018-05-11T01:49:07.545Z,0.00
2018-05-11T01:50:07.676Z,0.00
2018-05-11T01:51:07.565Z,0.00
2018-05-11T01:52:07.586Z,0.00
2018-05-11T01:53:07.592Z,0.00
2018-05-11T01:54:07.613Z,0.00
2018-05-11T01:55:07.786Z,0.00
2018-05-11T01:56:07.664Z,0.00
2018-05-11T01:57:07.682Z,0.00
2018-05-11T01:58:07.689Z,0.00
2018-05-11T01:59:07.705Z,0.00
2018-05-11T02:00:07.821Z,0.00
2018-05-11T02:01:07.735Z,0.00
2018-05-11T02:02:07.722Z,0.00
2018-05-11T02:03:07.740Z,0.00
2018-05-11T02:04:07.757Z,0.00
2018-05-11T02:05:07.928Z,0.00
2018-05-11T02:06:07.784Z,0.00
2018-05-11T02:07:07.820Z,0.00
2018-05-11T02:08:07.842Z,0.00
2018-05-11T02:09:07.848Z,0.00
2018-05-11T02:10:08.014Z,0.00
2018-05-11T02:11:07.852Z,0.00
2018-05-11T02:12:07.892Z,0.00
2018-05-11T02:13:07.906Z,0.00
2018-05-11T02:14:07.928Z,0.00
2018-05-11T02:15:08.036Z,0.00
2018-05-11T02:16:07.929Z,0.00
2018-05-11T02:17:07.933Z,0.00
2018-05-11T02:18:07.982Z,0.00
2018-05-11T02:19:07.975Z,0.00
2018-05-11T02:20:08.170Z,0.00
2018-05-11T02:21:08.024Z,0.00
2018-05-11T02:22:08.028Z,0.00
2018-05-11T02:23:08.043Z,0.00
2018-05-11T02:24:08.043Z,0.00
2018-05-11T02:25:08.166Z,0.00
2018-05-11T02:26:08.074Z,0.00
2018-05-11T02:27:08.088Z,0.00
2018-05-11T02:28:08.102Z,0.00
2018-05-11T02:29:08.114Z,0.00
2018-05-11T02:30:08.227Z,0.00
2018-05-11T02:31:08.146Z,0.00
2018-05-11T02:32:08.175Z,0.00
2018-05-11T02:33:08.171Z,0.00
2018-05-11T02:34:08.219Z,0.00
2018-05-11T02:35:08.300Z,0.00
2018-05-11T02:36:08.210Z,0.00
2018-05-11T02:37:08.255Z,0.00
2018-05-11T02:38:08.240Z,0.00
2018-05-11T02:39:08.251Z,0.00
2018-05-11T02:40:08.374Z,0.00
2018-05-11T02:41:08.302Z,0.00
2018-05-11T02:42:08.300Z,0.00
2018-05-11T02:43:08.320Z,0.00
2018-05-11T02:44:08.328Z,0.00
2018-05-11T02:45:08.348Z,0.00
2018-05-11T02:46:08.461Z,0.00
2018-05-11T02:47:08.371Z,0.00
2018-05-11T02:48:08.396Z,0.00
2018-05-11T02:49:08.400Z,0.00
2018-05-11T02:50:08.442Z,0.00
2018-05-11T02:51:08.530Z,0.00
2018-05-11T02:52:08.444Z,0.00
2018-05-11T02:53:08.459Z,0.00
2018-05-11T02:54:08.486Z,0.00
2018-05-11T02:55:08.494Z,0.00
2018-05-11T02:56:08.622Z,0.00
2018-05-11T02:57:08.512Z,0.00
2018-05-11T02:58:08.555Z,0.00
2018-05-11T02:59:08.553Z,0.00
2018-05-11T03:00:08.570Z,0.00
2018-05-11T03:01:08.675Z,0.00
2018-05-11T03:02:08.592Z,0.00
2018-05-11T03:03:08.600Z,0.00
2018-05-11T03:04:08.632Z,0.00
2018-05-11T03:05:08.645Z,0.00
2018-05-11T03:06:08.753Z,0.00
2018-05-11T03:07:08.685Z,0.00
2018-05-11T03:08:08.703Z,0.00
2018-05-11T03:09:08.713Z,0.00
2018-05-11T03:10:08.697Z,0.00
2018-05-11T03:11:08.828Z,0.00
2018-05-11T03:12:08.751Z,0.00
2018-05-11T03:13:08.751Z,0.00
2018-05-11T03:14:08.768Z,0.00
2018-05-11T03:15:08.788Z,0.00
2018-05-11T03:16:08.911Z,0.00
2018-05-11T03:17:08.807Z,0.00
2018-05-11T03:18:08.814Z,0.00
2018-05-11T03:19:08.837Z,0.00
2018-05-11T03:20:08.868Z,0.00
2018-05-11T03:21:09.003Z,0.00
2018-05-11T03:22:08.870Z,0.00
2018-05-11T03:23:08.885Z,0.00
2018-05-11T03:24:08.911Z,0.00
2018-05-11T03:25:08.933Z,0.00
2018-05-11T03:26:09.037Z,0.00
2018-05-11T03:27:08.971Z,0.00
2018-05-11T03:28:08.978Z,0.00
2018-05-11T03:29:08.969Z,0.00
2018-05-11T03:30:08.991Z,0.00
2018-05-11T03:31:09.098Z,0.00
2018-05-11T03:32:09.009Z,0.00
2018-05-11T03:33:09.049Z,0.00
2018-05-11T03:34:09.051Z,0.00
2018-05-11T03:35:09.075Z,0.00
2018-05-11T03:36:09.244Z,0.00
2018-05-11T03:37:09.078Z,0.00
2018-05-11T03:38:09.119Z,0.00
2018-05-11T03:39:09.109Z,0.00
2018-05-11T03:40:09.118Z,0.00
2018-05-11T03:41:09.240Z,0.00
2018-05-11T03:42:09.158Z,0.00
2018-05-11T03:43:09.170Z,0.00
2018-05-11T03:44:09.187Z,0.00
2018-05-11T03:45:09.190Z,0.00
2018-05-11T03:46:09.370Z,0.00
2018-05-11T03:47:09.231Z,0.00
2018-05-11T03:48:09.231Z,0.00
2018-05-11T03:49:09.247Z,0.00
2018-05-11T03:50:09.287Z,0.00
2018-05-11T03:51:09.302Z,0.00
2018-05-11T03:52:09.390Z,0.00
2018-05-11T03:53:09.325Z,0.00
2018-05-11T03:54:09.318Z,0.00
2018-05-11T03:55:09.347Z,0.00
2018-05-11T03:56:09.359Z,0.00
2018-05-11T03:57:09.356Z,0.00
2018-05-11T03:58:09.471Z,0.00
2018-05-11T03:59:09.383Z,0.00
2018-05-11T04:00:09.396Z,0.00
2018-05-11T04:01:09.423Z,0.00
2018-05-11T04:02:09.455Z,0.00
2018-05-11T04:03:09.535Z,0.00
2018-05-11T04:04:09.470Z,0.00
2018-05-11T04:05:09.467Z,0.00
2018-05-11T04:06:09.481Z,0.00
2018-05-11T04:07:09.498Z,0.00
2018-05-11T04:08:09.614Z,0.00
2018-05-11T04:09:09.527Z,0.00
2018-05-11T04:10:09.567Z,0.00
2018-05-11T04:11:09.562Z,0.00
2018-05-11T04:12:09.576Z,0.00
2018-05-11T04:13:09.696Z,0.00
2018-05-11T04:14:09.594Z,0.00
2018-05-11T04:15:09.609Z,0.00
2018-05-11T04:16:09.632Z,0.00
2018-05-11T04:17:09.637Z,0.00
2018-05-11T04:18:09.801Z,0.00
2018-05-11T04:19:09.667Z,0.00
2018-05-11T04:20:09.676Z,0.00
2018-05-11T04:21:09.692Z,0.00
2018-05-11T04:22:09.705Z,0.00
2018-05-11T04:23:09.816Z,0.00
2018-05-11T04:24:09.730Z,0.00
2018-05-11T04:25:09.743Z,0.00
2018-05-11T04:26:09.867Z,0.00
2018-05-11T04:27:09.804Z,0.00
2018-05-11T04:28:09.898Z,0.00
2018-05-11T04:29:09.798Z,0.00
2018-05-11T04:30:09.894Z,0.00
2018-05-11T04:31:09.829Z,0.00
2018-05-11T04:32:09.851Z,0.00
2018-05-11T04:33:09.979Z,0.00
2018-05-11T04:34:09.869Z,0.00
2018-05-11T04:35:09.876Z,0.00
2018-05-11T04:36:09.898Z,0.00
2018-05-11T04:37:09.921Z,0.00
2018-05-11T04:38:10.105Z,0.00
2018-05-11T04:39:09.944Z,0.00
2018-05-11T04:40:09.954Z,0.00
2018-05-11T04:41:09.967Z,0.00
2018-05-11T04:42:09.979Z,0.00
2018-05-11T04:43:10.087Z,0.00
2018-05-11T04:44:10.008Z,0.00
2018-05-11T04:45:10.038Z,0.00
2018-05-11T04:46:10.034Z,0.00
2018-05-11T04:47:10.053Z,0.00
2018-05-11T04:48:10.170Z,0.00
2018-05-11T04:49:10.072Z,0.00
2018-05-11T04:50:10.111Z,0.00
2018-05-11T04:51:10.103Z,0.00
2018-05-11T04:52:10.122Z,0.00
2018-05-11T04:53:10.287Z,0.00
2018-05-11T04:54:10.172Z,0.00
2018-05-11T04:55:10.206Z,0.00
2018-05-11T04:56:10.166Z,0.00
2018-05-11T04:57:10.183Z,0.00
2018-05-11T04:58:10.373Z,0.00
2018-05-11T04:59:10.213Z,0.00
2018-05-11T05:00:10.223Z,0.00
2018-05-11T05:01:10.261Z,0.00
2018-05-11T05:02:10.281Z,0.00
2018-05-11T05:03:10.263Z,0.00
2018-05-11T05:04:10.386Z,0.00
2018-05-11T05:05:10.296Z,0.00
2018-05-11T05:06:10.306Z,0.00
2018-05-11T05:07:10.329Z,0.00
2018-05-11T05:08:10.338Z,0.00
2018-05-11T05:09:10.520Z,0.00
2018-05-11T05:10:10.368Z,0.00
2018-05-11T05:11:10.397Z,0.00
2018-05-11T05:12:10.388Z,0.00
2018-05-11T05:13:10.396Z,0.00
2018-05-11T05:16:29.651Z,0.00
2018-05-11T05:19:10.642Z,0.00
2018-05-11T05:20:10.519Z,0.00
2018-05-11T05:21:10.517Z,0.00
2018-05-11T05:22:10.523Z,0.00
2018-05-11T05:23:10.537Z,0.00
2018-05-11T05:24:10.673Z,0.00
2018-05-11T05:27:11.263Z,0.00
2018-05-11T05:28:12.661Z,0.00
2018-05-11T05:29:11.530Z,0.00
2018-05-11T05:30:10.628Z,0.00
2018-05-11T05:31:10.641Z,0.00
2018-05-11T05:32:10.669Z,0.00
2018-05-11T05:33:10.722Z,0.00
2018-05-11T05:34:10.793Z,0.00
2018-05-11T05:35:10.694Z,0.00
2018-05-11T05:36:10.721Z,0.00
2018-05-11T05:37:10.732Z,0.00
2018-05-11T05:38:10.734Z,0.00
2018-05-11T05:39:10.905Z,0.00
2018-05-11T05:40:10.770Z,0.00
2018-05-11T05:41:10.783Z,0.00
2018-05-11T05:42:10.791Z,0.00
2018-05-11T05:43:10.813Z,0.00
2018-05-11T05:44:37.986Z,0.00
2018-05-11T05:45:10.836Z,0.00
2018-05-11T05:46:10.849Z,0.00
2018-05-11T05:47:10.855Z,0.00
2018-05-11T05:48:10.899Z,0.00
2018-05-11T05:49:11.010Z,0.00
2018-05-11T05:50:10.901Z,0.00
2018-05-11T05:51:10.940Z,0.00
2018-05-11T05:52:12.137Z,0.00
2018-05-11T05:53:18.132Z,0.00
2018-05-11T05:54:13.366Z,0.00
2018-05-11T05:55:10.987Z,0.00
2018-05-11T05:56:10.981Z,0.00
2018-05-11T05:57:11.526Z,0.00
2018-05-11T05:59:14.780Z,0.00
2018-05-11T06:00:11.063Z,0.00
2018-05-11T06:01:11.044Z,0.00
2018-05-11T06:02:11.081Z,0.00
2018-05-11T06:03:11.069Z,0.00
2018-05-11T06:04:12.528Z,0.00
2018-05-11T06:05:11.737Z,0.00
2018-05-11T06:06:11.110Z,0.00
2018-05-11T06:07:11.149Z,0.00
2018-05-11T06:08:11.222Z,0.00
2018-05-11T06:09:11.277Z,0.00
2018-05-11T06:10:11.161Z,0.00
2018-05-11T06:11:11.191Z,0.00
2018-05-11T06:12:11.218Z,0.00
2018-05-11T06:13:11.199Z,0.00
2018-05-11T06:14:11.338Z,0.00
2018-05-11T06:15:11.254Z,0.00
2018-05-11T06:16:11.244Z,0.00
2018-05-11T06:17:11.284Z,0.00
2018-05-11T06:18:11.259Z,0.00
2018-05-11T06:19:11.304Z,0.00
2018-05-11T06:20:11.445Z,0.00
2018-05-11T06:21:11.310Z,0.00
2018-05-11T06:22:11.314Z,0.00
2018-05-11T06:23:11.331Z,0.00
2018-05-11T06:24:11.356Z,0.00
2018-05-11T06:25:11.486Z,0.00
2018-05-11T06:26:11.397Z,0.00
2018-05-11T06:27:11.387Z,0.00
2018-05-11T06:28:11.393Z,0.00
2018-05-11T06:29:11.434Z,0.00
2018-05-11T06:31:11.544Z,0.00
2018-05-11T06:32:11.458Z,0.00
2018-05-11T06:33:11.460Z,0.00
2018-05-11T06:34:11.472Z,0.00
2018-05-11T06:35:11.488Z,0.00
2018-05-11T06:36:11.601Z,0.00
2018-05-11T06:37:11.546Z,0.00
2018-05-11T06:38:11.532Z,0.00
2018-05-11T06:39:11.549Z,0.00
2018-05-11T06:40:18.901Z,0.00
2018-05-11T06:41:12.282Z,0.00
2018-05-11T06:42:11.584Z,0.00
2018-05-11T06:43:11.603Z,0.00
2018-05-11T06:44:11.632Z,0.00
2018-05-11T06:45:12.229Z,0.00
2018-05-11T06:46:11.758Z,0.00
2018-05-11T06:47:11.648Z,0.00
2018-05-11T06:48:11.670Z,0.00
2018-05-11T06:49:11.674Z,0.00
2018-05-11T06:50:11.717Z,0.00
2018-05-11T06:51:11.827Z,0.00
2018-05-11T06:52:11.741Z,0.00
2018-05-11T06:53:11.749Z,0.00
2018-05-11T06:54:11.755Z,0.00
2018-05-11T06:55:11.782Z,0.00
2018-05-11T06:56:11.946Z,0.00
2018-05-11T06:57:11.791Z,0.00
2018-05-11T06:58:11.796Z,0.00
2018-05-11T06:59:11.817Z,0.00
2018-05-11T07:00:11.820Z,0.00
2018-05-11T07:01:11.931Z,0.00
2018-05-11T07:02:11.849Z,0.00
2018-05-11T07:03:11.857Z,0.00
2018-05-11T07:04:11.877Z,0.00
2018-05-11T07:05:11.883Z,0.00
2018-05-11T07:06:12.010Z,0.00
2018-05-11T07:07:11.934Z,0.00
2018-05-11T07:08:11.927Z,0.00
2018-05-11T07:09:11.963Z,0.00
2018-05-11T07:10:11.947Z,0.00
2018-05-11T07:11:12.112Z,0.00
2018-05-11T07:12:11.999Z,0.00
2018-05-11T07:13:11.987Z,0.00
2018-05-11T07:14:12.029Z,0.00
2018-05-11T07:15:12.013Z,0.00
2018-05-11T07:16:12.202Z,0.00
2018-05-11T07:17:12.054Z,0.00
2018-05-11T07:18:12.077Z,0.00
2018-05-11T07:19:12.065Z,0.00
2018-05-11T07:20:12.083Z,0.00
2018-05-11T07:21:12.197Z,0.00
2018-05-11T07:22:12.128Z,0.00
2018-05-11T07:23:12.146Z,0.00
2018-05-11T07:24:12.130Z,0.00
2018-05-11T07:25:12.138Z,0.00
2018-05-11T07:26:12.317Z,0.00
2018-05-11T07:27:12.165Z,0.00
2018-05-11T07:28:12.207Z,0.00
2018-05-11T07:34:12.280Z,0.00
2018-05-11T07:35:12.293Z,0.00
2018-05-11T07:36:12.309Z,0.00
2018-05-11T07:37:12.321Z,0.00
2018-05-11T07:38:12.432Z,0.00
2018-05-11T07:39:12.321Z,0.00
2018-05-11T07:41:12.349Z,0.00
2018-05-11T07:42:12.389Z,0.00
2018-05-11T07:43:12.580Z,0.00
2018-05-11T07:44:12.411Z,0.00
2018-05-11T07:45:12.421Z,0.00
2018-05-11T07:46:13.896Z,0.00
2018-05-11T07:47:13.424Z,0.00
2018-05-11T07:48:14.028Z,0.00
2018-05-11T07:49:14.049Z,0.00
2018-05-11T07:50:12.462Z,0.00
2018-05-11T07:51:12.476Z,0.00
2018-05-11T07:52:12.485Z,0.00
2018-05-11T07:53:12.608Z,0.00
2018-05-11T07:54:12.523Z,0.00
2018-05-11T07:55:12.550Z,0.00
2018-05-11T07:56:12.539Z,0.00
2018-05-11T07:57:12.577Z,0.00
2018-05-11T07:58:12.729Z,0.00
2018-05-11T07:59:13.790Z,0.00
2018-05-11T08:00:12.601Z,0.00
2018-05-11T08:01:12.605Z,0.00
2018-05-11T08:02:12.629Z,0.00
2018-05-11T08:03:12.801Z,0.00
2018-05-11T08:04:12.640Z,0.00
2018-05-11T08:05:12.658Z,0.00
2018-05-11T08:06:12.661Z,0.00
2018-05-11T08:07:12.681Z,0.00
2018-05-11T08:08:12.838Z,0.00
2018-05-11T08:09:12.728Z,0.00
2018-05-11T08:11:12.741Z,0.00
2018-05-11T08:12:12.741Z,0.00
2018-05-11T08:13:12.883Z,0.00
2018-05-11T08:14:12.847Z,0.00
2018-05-11T08:15:12.786Z,0.00
2018-05-11T08:16:12.818Z,0.00
2018-05-11T08:17:12.835Z,0.00
2018-05-11T08:18:13.653Z,0.00
2018-05-11T08:19:12.858Z,0.00
2018-05-11T08:20:12.875Z,0.00
2018-05-11T08:21:12.859Z,0.00
2018-05-11T08:22:12.871Z,0.00
2018-05-11T08:23:13.058Z,0.00
2018-05-11T08:24:12.901Z,0.00
2018-05-11T08:25:12.918Z,0.00
2018-05-11T08:26:12.926Z,0.00
2018-05-11T08:27:12.935Z,0.00
2018-05-11T08:28:13.049Z,0.00
2018-05-11T08:29:12.990Z,0.00
2018-05-11T08:30:13.006Z,0.00
2018-05-11T08:31:12.989Z,0.00
2018-05-11T08:32:13.022Z,0.00
2018-05-11T08:33:13.159Z,0.00
2018-05-11T08:34:13.526Z,0.00
2018-05-11T08:35:13.037Z,0.00
2018-05-11T08:36:13.052Z,0.00
2018-05-11T08:37:13.063Z,0.00
2018-05-11T08:38:13.188Z,0.00
2018-05-11T08:39:13.089Z,0.00
2018-05-11T08:40:13.102Z,0.00
2018-05-11T08:41:13.113Z,0.00
2018-05-11T08:42:13.153Z,0.00
2018-05-11T08:43:13.315Z,0.00
2018-05-11T08:44:13.156Z,0.00
2018-05-11T08:45:13.187Z,0.00
2018-05-11T08:46:13.193Z,0.00
2018-05-11T08:47:13.217Z,0.00
2018-05-11T08:48:13.225Z,0.00
2018-05-11T08:49:13.340Z,0.00
2018-05-11T08:50:13.222Z,0.00
2018-05-11T08:51:13.266Z,0.00
2018-05-11T08:53:17.675Z,0.00
2018-05-11T08:54:20.542Z,0.00
2018-05-11T08:55:13.290Z,0.00
2018-05-11T08:56:13.320Z,0.00
2018-05-11T08:57:13.362Z,0.00
2018-05-11T08:58:13.326Z,0.00
2018-05-11T08:59:13.467Z,0.00
2018-05-11T09:00:13.352Z,0.00
2018-05-11T09:01:13.377Z,0.00
2018-05-11T09:02:13.379Z,0.00
2018-05-11T09:03:13.418Z,0.00
2018-05-11T09:04:13.531Z,4.00
2018-05-11T09:05:13.439Z,0.00
2018-05-11T09:06:13.426Z,0.00
2018-05-11T09:07:13.450Z,4.00
2018-05-11T09:08:13.455Z,4.00
2018-05-11T09:09:13.565Z,4.00
2018-05-11T09:10:13.484Z,4.00
2018-05-11T09:11:13.490Z,8.00
2018-05-11T09:12:13.532Z,12.00
2018-05-11T09:13:13.520Z,12.00
2018-05-11T09:14:13.679Z,12.00
2018-05-11T09:15:13.552Z,16.00
2018-05-11T09:16:13.557Z,20.00
2018-05-11T09:17:13.571Z,28.00
2018-05-11T09:18:13.579Z,36.00
2018-05-11T09:19:13.718Z,44.00
2018-05-11T09:20:13.610Z,52.00
2018-05-11T09:21:13.616Z,64.00
2018-05-11T09:22:13.629Z,80.00
2018-05-11T09:23:13.644Z,92.00
2018-05-11T09:24:13.752Z,116.00
2018-05-11T09:25:13.693Z,136.00
2018-05-11T09:26:13.677Z,160.00
2018-05-11T09:27:13.718Z,184.00
2018-05-11T09:28:13.707Z,216.00
2018-05-11T09:29:13.826Z,248.00
2018-05-11T09:30:13.726Z,280.00
2018-05-11T09:31:13.742Z,316.00
2018-05-11T09:32:13.751Z,360.00
2018-05-11T09:33:13.782Z,404.00
2018-05-11T09:34:33.694Z,452.00
2018-05-11T09:35:14.398Z,500.00
2018-05-11T09:36:13.832Z,560.00
2018-05-11T09:37:13.816Z,616.00
2018-05-11T09:38:14.604Z,684.00
2018-05-11T09:39:14.594Z,760.00
2018-05-11T09:40:14.050Z,840.00
2018-05-11T09:41:14.435Z,928.00
2018-05-11T09:42:13.883Z,1008.00
2018-05-11T09:43:13.890Z,1100.00
2018-05-11T09:44:14.078Z,1184.00
2018-05-11T09:45:13.916Z,1280.00
2018-05-11T09:46:14.365Z,1384.00
2018-05-11T09:47:13.951Z,1488.00
2018-05-11T09:48:14.476Z,1596.00
2018-05-11T09:49:14.094Z,1704.00
2018-05-11T09:50:14.006Z,1812.00
2018-05-11T09:51:14.005Z,1928.00
2018-05-11T09:52:14.548Z,2032.00
2018-05-11T09:53:15.153Z,2152.00
2018-05-11T09:54:14.659Z,2268.00
2018-05-11T09:55:14.039Z,2384.00
2018-05-11T09:56:14.070Z,2500.00
2018-05-11T09:57:14.070Z,2604.00
2018-05-11T09:58:14.110Z,2716.00
2018-05-11T09:59:14.197Z,2824.00
2018-05-11T10:00:15.084Z,2924.00
2018-05-11T10:01:14.116Z,3028.00
2018-05-11T10:02:14.125Z,3128.00
2018-05-11T10:03:14.160Z,3228.00
2018-05-11T10:04:14.279Z,3308.00
2018-05-11T10:05:14.190Z,3396.00
2018-05-11T10:06:14.180Z,3476.00
2018-05-11T10:07:14.219Z,3560.00
2018-05-11T10:08:14.208Z,3648.00
2018-05-11T10:09:14.217Z,3724.00
2018-05-11T10:10:14.379Z,3804.00
2018-05-11T10:11:14.271Z,3896.00
2018-05-11T10:12:15.797Z,3992.00
2018-05-11T10:13:15.125Z,4072.00
2018-05-11T10:14:14.921Z,4140.00
2018-05-11T10:16:14.315Z,4304.00
2018-05-11T10:17:14.329Z,4392.00
2018-05-11T10:18:14.389Z,4468.00
2018-05-11T10:19:14.360Z,4540.00
2018-05-11T10:20:14.515Z,4624.00
2018-05-11T10:21:14.392Z,4664.00
2018-05-11T10:22:14.399Z,4776.00
2018-05-11T10:23:14.396Z,4796.00
2018-05-11T10:24:14.417Z,4832.00
2018-05-11T10:25:14.579Z,4880.00
2018-05-11T10:26:14.454Z,4960.00
2018-05-11T10:27:14.466Z,5056.00
2018-05-11T10:28:14.473Z,5116.00
2018-05-11T10:29:14.490Z,5468.00
2018-05-11T10:30:14.622Z,5812.00
2018-05-11T10:31:14.524Z,5884.00
2018-05-11T10:32:14.519Z,5808.00
2018-05-11T10:33:16.041Z,6280.00
2018-05-11T10:34:14.549Z,6716.00
2018-05-11T10:35:22.275Z,7524.00
2018-05-11T10:36:14.580Z,7896.00
2018-05-11T10:37:14.597Z,9288.00
2018-05-11T10:38:14.611Z,10256.00
2018-05-11T10:39:14.642Z,9536.00
2018-05-11T10:40:14.758Z,8140.00
2018-05-11T10:41:14.668Z,6828.00
2018-05-11T10:42:14.690Z,7908.00
2018-05-11T10:43:14.684Z,9296.00
2018-05-11T10:44:14.691Z,10040.00
2018-05-11T10:45:14.872Z,10304.00
2018-05-11T10:46:14.711Z,9876.00
2018-05-11T10:47:14.727Z,9560.00
2018-05-11T10:51:14.811Z,10252.00
2018-05-11T10:52:41.372Z,10864.00
2018-05-11T10:53:34.043Z,10256.00
2018-05-11T10:54:15.660Z,7460.00
2018-05-11T10:55:16.969Z,11260.00
2018-05-11T10:56:14.852Z,13316.00
2018-05-11T10:57:14.878Z,13856.00
2018-05-11T10:58:14.881Z,14208.00
2018-05-11T10:59:14.920Z,14920.00
2018-05-11T11:00:15.079Z,15380.00
2018-05-11T11:01:14.925Z,15752.00
2018-05-11T11:02:15.038Z,16224.00
2018-05-11T11:03:14.956Z,16160.00
2018-05-11T11:04:14.997Z,15924.00
2018-05-11T11:05:15.101Z,16160.00
2018-05-11T11:06:15.838Z,16448.00
2018-05-11T11:10:15.191Z,16864.00
2018-05-11T11:12:16.192Z,17120.00
2018-05-11T11:13:17.449Z,17376.00
2018-05-11T11:14:15.149Z,17504.00
2018-05-11T11:15:15.263Z,17696.00
2018-05-11T11:16:15.154Z,17760.00
2018-05-11T11:17:15.167Z,17952.00
2018-05-11T11:18:15.184Z,18016.00
2018-05-11T11:19:15.225Z,18144.00
2018-05-11T11:20:15.230Z,18368.00
2018-05-11T11:21:15.327Z,18592.00
2018-05-11T11:22:15.241Z,18496.00
2018-05-11T11:23:15.273Z,18528.00
2018-05-11T11:24:15.305Z,18656.00
2018-05-11T11:25:15.297Z,18848.00
2018-05-11T11:26:15.433Z,18848.00
2018-05-11T11:27:15.349Z,19072.00
2018-05-11T11:28:15.351Z,19360.00
2018-05-11T11:29:15.360Z,19296.00
2018-05-11T11:30:15.384Z,19648.00
2018-05-11T11:31:15.518Z,19712.00
2018-05-11T11:32:15.438Z,19808.00
2018-05-11T11:33:15.446Z,19680.00
2018-05-11T11:34:15.516Z,19584.00
2018-05-11T11:35:15.455Z,19616.00
2018-05-11T11:36:15.629Z,19872.00
2018-05-11T11:37:15.495Z,20000.00
2018-05-11T11:38:15.533Z,20160.00
2018-05-11T11:39:16.444Z,20320.00
2018-05-11T11:40:16.170Z,20672.00
2018-05-11T11:41:15.716Z,20800.00
2018-05-11T11:43:17.485Z,20800.00
2018-05-11T11:44:15.607Z,21056.00
2018-05-11T11:45:15.630Z,21248.00
2018-05-11T11:46:15.790Z,21248.00
2018-05-11T11:47:15.665Z,21312.00
2018-05-11T11:48:19.582Z,21440.00
2018-05-11T11:49:15.702Z,21696.00
2018-05-11T11:50:15.734Z,21760.00
2018-05-11T11:51:15.833Z,22016.00
2018-05-11T11:52:15.748Z,22048.00
2018-05-11T11:53:15.789Z,22112.00
2018-05-11T11:54:15.783Z,22464.00
2018-05-11T11:55:15.825Z,22688.00
2018-05-11T11:56:17.790Z,23040.00
2018-05-11T11:57:29.143Z,23136.00
2018-05-11T11:58:15.886Z,23360.00
2018-05-11T12:00:17.103Z,23808.00
2018-05-11T12:01:17.167Z,24256.00
2018-05-11T12:03:17.063Z,29280.00
2018-05-11T12:04:17.401Z,39296.00
2018-05-11T12:05:16.690Z,51296.00
2018-05-11T12:06:16.109Z,55808.00
2018-05-11T12:07:16.449Z,54432.00
2018-05-11T12:08:17.253Z,52480.00
2018-05-11T12:09:16.065Z,53920.00
2018-05-11T12:11:16.876Z,50144.00
2018-05-11T12:12:17.124Z,53536.00
2018-05-11T12:14:17.175Z,55488.00
2018-05-11T12:15:16.977Z,48896.00
2018-05-11T12:16:16.893Z,51616.00
2018-05-11T12:17:16.213Z,43936.00
2018-05-11T12:18:17.062Z,50336.00
2018-05-11T12:19:17.460Z,51072.00
2018-05-11T12:20:16.269Z,56096.00
2018-05-11T12:21:16.413Z,55744.00
2018-05-11T12:22:16.309Z,52928.00
2018-05-11T12:23:16.331Z,51296.00
2018-05-11T12:24:17.501Z,56800.00
2018-05-11T12:26:16.624Z,53088.00
2018-05-11T12:27:16.433Z,62528.00
2018-05-11T12:28:16.428Z,59712.00
2018-05-11T12:30:17.451Z,56832.00
2018-05-11T12:32:16.506Z,55584.00
2018-05-11T12:34:16.575Z,51744.00
2018-05-11T12:36:17.855Z,57024.00
2018-05-11T12:37:17.214Z,57760.00
2018-05-11T12:38:16.625Z,63296.00
2018-05-11T12:39:16.675Z,66912.00
2018-05-11T12:40:16.678Z,62528.00
2018-05-11T12:42:16.713Z,61888.00
2018-05-11T12:43:54.057Z,65728.00
2018-05-11T12:44:17.556Z,60416.00
2018-05-11T12:45:16.769Z,56704.00
2018-05-11T12:46:16.941Z,52544.00
2018-05-11T12:47:50.025Z,53312.00
2018-05-11T12:48:16.838Z,48416.00
2018-05-11T12:50:16.900Z,49984.00
2018-05-11T12:51:17.026Z,53568.00
2018-05-11T12:56:17.106Z,58656.00
2018-05-11T12:57:17.931Z,54880.00
2018-05-11T13:00:18.578Z,49728.00
2018-05-11T13:01:17.273Z,53056.00
2018-05-11T13:02:17.144Z,57312.00
2018-05-11T13:03:17.161Z,56992.00
2018-05-11T13:04:17.191Z,57888.00
2018-05-11T13:05:37.695Z,58016.00
2018-05-11T13:06:18.545Z,59488.00
2018-05-11T13:07:17.884Z,59520.00
2018-05-11T13:09:17.287Z,60704.00
2018-05-11T13:10:17.312Z,61408.00
2018-05-11T13:12:17.372Z,67584.00
2018-05-11T13:13:18.601Z,67040.00
2018-05-11T13:15:17.426Z,64928.00
2018-05-11T13:16:18.637Z,67904.00
2018-05-11T13:18:18.988Z,60000.00
2018-05-11T13:20:17.555Z,62592.00
2018-05-11T13:21:17.681Z,65344.00
2018-05-11T13:22:17.597Z,67840.00
2018-05-11T13:23:17.612Z,64320.00
2018-05-11T13:24:17.658Z,63488.00
2018-05-11T13:25:17.657Z,68000.00
2018-05-11T13:26:18.615Z,74848.00
2018-05-11T13:27:18.920Z,71456.00
2018-05-11T13:29:17.753Z,75040.00
2018-05-11T13:30:17.865Z,57216.00
2018-05-11T13:31:17.912Z,73536.00
2018-05-11T13:32:17.838Z,77088.00
2018-05-11T13:33:19.242Z,76800.00
2018-05-11T13:35:17.911Z,78400.00
2018-05-11T13:36:18.106Z,80320.00
2018-05-11T13:37:17.952Z,81984.00
2018-05-11T13:38:17.971Z,82688.00
2018-05-11T13:45:02.865Z,94144.00
2018-05-11T13:46:16.528Z,96928.00